30  °C
Temperature
6  °C
  Dewpoint
22  %
   Humidity
Temp | Dewpoint | Humidity
10  km/h
Wind Speed
6  mph
Wind Speed
5  kts
Wind Speed
10°
Due North

Wind Speed
Clear
Conditions
Pressure 1021.92 (hPa) - 30.18 (in)
Visibility 6.2 (mi) - 10.0 (km)

Current Conditions
EGBJ
Location 6km (3.2mi)
Metar :EGBJ 101820Z 01005KT CAVOK 30/06 Q1022
Wed 10th August 18:20 pm

Airport
https://www.checkwx.com/
  Metar Aviation API Data Provided by https://www.checkwx.com/ CSS/SVG/PHP scripts by weather34.com © 2015-2022